Time;durP1;ratioP1;P1;durP2;ratioP2;P2;SDS_P1;SDS_P2;PMS_P1;PMS_P2;Temp;Humidity;BMP_temperature;BMP_pressure;BME280_temperature;BME280_humidity;BME280_pressure;Samples;Min_cycle;Max_cycle;Signal;HPM_P1;HPM_P2
2021/06/21 00:00:59;;;;;;;1.17;0.90;;;;;;;;;;5067623;28;20420;-71
2021/06/21 00:03:25;;;;;;;0.73;0.73;;;;;;;;;;5069365;28;20049;-71
2021/06/21 00:05:51;;;;;;;1.98;1.15;;;;;;;;;;5069020;28;20053;-71
2021/06/21 00:08:18;;;;;;;1.33;0.88;;;;;;;;;;5069024;28;20064;-71
2021/06/21 00:10:44;;;;;;;3.55;1.30;;;;;;;;;;5068995;28;20510;-71
2021/06/21 00:13:10;;;;;;;1.48;1.08;;;;;;;;;;5068597;28;20063;-71
2021/06/21 00:15:36;;;;;;;1.50;1.25;;;;;;;;;;5068184;28;20430;-71
2021/06/21 00:18:03;;;;;;;1.00;0.90;;;;;;;;;;5069047;28;20561;-71
2021/06/21 00:20:29;;;;;;;1.15;0.85;;;;;;;;;;5069538;28;20048;-71
2021/06/21 00:22:56;;;;;;;3.33;1.13;;;;;;;;;;5068703;28;20143;-71
2021/06/21 00:25:22;;;;;;;1.55;1.08;;;;;;;;;;5068615;28;20040;-71
2021/06/21 00:27:49;;;;;;;1.40;0.82;;;;;;;;;;5069386;28;20052;-71
2021/06/21 00:30:15;;;;;;;2.65;1.02;;;;;;;;;;5068570;28;20060;-71
2021/06/21 00:32:42;;;;;;;1.95;1.10;;;;;;;;;;5068136;28;20041;-71
2021/06/21 00:35:09;;;;;;;6.80;1.77;;;;;;;;;;5067410;28;20064;-71
2021/06/21 00:37:36;;;;;;;1.40;0.70;;;;;;;;;;5068814;28;20052;-71
2021/06/21 00:40:03;;;;;;;1.42;1.10;;;;;;;;;;5068380;28;20052;-71
2021/06/21 00:42:29;;;;;;;2.90;1.02;;;;;;;;;;5068504;28;20044;-71
2021/06/21 00:44:55;;;;;;;4.72;1.77;;;;;;;;;;5067914;28;20126;-71
2021/06/21 00:47:21;;;;;;;1.95;1.25;;;;;;;;;;5068862;28;20120;-71
2021/06/21 00:49:48;;;;;;;1.13;1.02;;;;;;;;;;5067979;28;20041;-71
2021/06/21 00:52:18;;;;;;;1.42;1.33;;;;;;;;;;5068411;28;20050;-71
2021/06/21 00:54:45;;;;;;;0.85;0.85;;;;;;;;;;5067625;28;20440;-71
2021/06/21 00:57:11;;;;;;;1.55;1.05;;;;;;;;;;5068184;28;20328;-71
2021/06/21 00:59:37;;;;;;;2.38;2.17;;;;;;;;;;5068472;28;20585;-71
2021/06/21 01:02:04;;;;;;;1.48;1.38;;;;;;;;;;5067284;28;20079;-71
2021/06/21 01:04:30;;;;;;;1.65;1.55;;;;;;;;;;5067515;28;20105;-71
2021/06/21 01:06:56;;;;;;;1.13;0.90;;;;;;;;;;5068105;28;20139;-71
2021/06/21 01:09:23;;;;;;;1.48;0.95;;;;;;;;;;5068103;28;20044;-71
2021/06/21 01:11:58;;;;;;;1.45;0.90;;;;;;;;;;5067347;28;20534;-71
2021/06/21 01:14:35;;;;;;;1.38;1.15;;;;;;;;;;5067581;28;20052;-71
2021/06/21 01:17:10;;;;;;;3.35;0.88;;;;;;;;;;5067654;28;20071;-71
2021/06/21 01:19:50;;;;;;;1.25;0.70;;;;;;;;;;5068117;28;20044;-71
2021/06/21 01:22:30;;;;;;;0.95;0.90;;;;;;;;;;5068223;28;20048;-71
2021/06/21 01:25:04;;;;;;;1.20;1.10;;;;;;;;;;5066870;28;20416;-71
2021/06/21 01:27:50;;;;;;;0.77;0.77;;;;;;;;;;5067615;28;20135;-71
2021/06/21 01:30:18;;;;;;;1.30;1.30;;;;;;;;;;5051457;28;20068;-71
2021/06/21 01:32:46;;;;;;;1.50;1.17;;;;;;;;;;5066864;28;20063;-71
2021/06/21 01:35:32;;;;;;;0.85;0.80;;;;;;;;;;5066906;28;20519;-71
2021/06/21 01:37:59;;;;;;;0.90;0.80;;;;;;;;;;5067321;28;20046;-71
2021/06/21 01:40:27;;;;;;;2.75;1.35;;;;;;;;;;5068193;28;20049;-71
2021/06/21 01:42:55;;;;;;;1.50;1.23;;;;;;;;;;5066908;28;20106;-71
2021/06/21 01:45:21;;;;;;;1.77;0.68;;;;;;;;;;5067501;28;20033;-71
2021/06/21 01:47:52;;;;;;;0.90;0.75;;;;;;;;;;5067782;28;20121;-71
2021/06/21 01:50:19;;;;;;;1.02;0.88;;;;;;;;;;5067999;28;20464;-71
2021/06/21 01:52:47;;;;;;;4.90;1.30;;;;;;;;;;5068008;28;20419;-71
2021/06/21 01:55:14;;;;;;;1.40;1.30;;;;;;;;;;5066798;28;20063;-71
2021/06/21 01:57:40;;;;;;;0.50;0.50;;;;;;;;;;5049957;28;20388;-71
2021/06/21 02:00:10;;;;;;;2.00;1.00;;;;;;;;;;5066942;28;21057;-71
2021/06/21 02:02:36;;;;;;;2.97;0.73;;;;;;;;;;5066426;28;20048;-71
2021/06/21 02:05:03;;;;;;;1.25;1.20;;;;;;;;;;5065885;28;20061;-71
2021/06/21 02:07:30;;;;;;;1.10;1.08;;;;;;;;;;5068060;28;20051;-71
2021/06/21 02:09:57;;;;;;;1.27;1.15;;;;;;;;;;5066645;28;20068;-71
2021/06/21 02:12:24;;;;;;;0.50;0.50;;;;;;;;;;5067580;28;20174;-71
2021/06/21 02:14:51;;;;;;;0.95;0.95;;;;;;;;;;5066404;28;20138;-71
2021/06/21 02:17:21;;;;;;;1.00;1.00;;;;;;;;;;5067907;28;20052;-71
2021/06/21 02:19:50;;;;;;;0.88;0.82;;;;;;;;;;5065795;28;20063;-72
2021/06/21 02:22:16;;;;;;;1.02;0.90;;;;;;;;;;5065688;28;20515;-72
2021/06/21 02:24:42;;;;;;;6.60;1.88;;;;;;;;;;5066825;28;20056;-72
2021/06/21 02:27:10;;;;;;;0.70;0.70;;;;;;;;;;5049287;28;20052;-71
2021/06/21 02:29:36;;;;;;;0.77;0.77;;;;;;;;;;5067488;28;20052;-71
2021/06/21 02:32:03;;;;;;;2.00;0.73;;;;;;;;;;5065988;28;20110;-71
2021/06/21 02:34:30;;;;;;;1.80;0.98;;;;;;;;;;5066007;28;20131;-71
2021/06/21 02:36:56;;;;;;;1.63;0.98;;;;;;;;;;5066710;28;20514;-71
2021/06/21 02:39:22;;;;;;;0.90;0.90;;;;;;;;;;5070869;28;20122;-71
2021/06/21 02:41:48;;;;;;;0.93;0.82;;;;;;;;;;5070335;28;20051;-71
2021/06/21 02:44:15;;;;;;;3.33;0.68;;;;;;;;;;5069175;28;20056;-71
2021/06/21 02:46:41;;;;;;;2.53;0.88;;;;;;;;;;5071017;28;20068;-71
2021/06/21 02:49:07;;;;;;;0.90;0.90;;;;;;;;;;5070362;28;20109;-71
2021/06/21 02:51:39;;;;;;;2.60;0.65;;;;;;;;;;5071309;28;20048;-71
2021/06/21 02:54:17;;;;;;;1.63;1.10;;;;;;;;;;5067560;28;20072;-71
2021/06/21 02:57:03;;;;;;;1.02;0.73;;;;;;;;;;5071171;28;20044;-71
2021/06/21 02:59:34;;;;;;;0.90;0.60;;;;;;;;;;5070381;28;20182;-71
2021/06/21 03:02:00;;;;;;;0.52;0.52;;;;;;;;;;5069396;28;20051;-71
2021/06/21 03:04:28;;;;;;;1.00;0.70;;;;;;;;;;5069746;28;20110;-71
2021/06/21 03:06:54;;;;;;;1.45;1.35;;;;;;;;;;5070336;28;20505;-71
2021/06/21 03:09:20;;;;;;;2.47;0.90;;;;;;;;;;5071115;28;20045;-71
2021/06/21 03:11:49;;;;;;;1.10;1.00;;;;;;;;;;5070410;28;20143;-71
2021/06/21 03:14:16;;;;;;;0.85;0.70;;;;;;;;;;5069437;28;20057;-71
2021/06/21 03:16:43;;;;;;;1.30;1.20;;;;;;;;;;5070975;28;20053;-71
2021/06/21 03:19:13;;;;;;;0.70;0.68;;;;;;;;;;5070244;28;20060;-71
2021/06/21 03:21:39;;;;;;;1.25;0.95;;;;;;;;;;5070884;28;20525;-71
2021/06/21 03:24:05;;;;;;;0.73;0.73;;;;;;;;;;5068984;28;20514;-71
2021/06/21 03:26:31;;;;;;;2.30;1.30;;;;;;;;;;5070708;28;20110;-71
2021/06/21 03:28:58;;;;;;;1.25;1.17;;;;;;;;;;5069600;28;20580;-71
2021/06/21 03:31:24;;;;;;;0.98;0.98;;;;;;;;;;5069314;28;20048;-71
2021/06/21 03:33:50;;;;;;;1.05;0.95;;;;;;;;;;5069230;28;20048;-71
2021/06/21 03:36:16;;;;;;;0.73;0.70;;;;;;;;;;5069930;28;20056;-71
2021/06/21 03:38:43;;;;;;;2.00;0.90;;;;;;;;;;5070184;28;20045;-71
2021/06/21 03:41:09;;;;;;;1.70;0.90;;;;;;;;;;5069755;28;20052;-71
2021/06/21 03:43:35;;;;;;;2.67;1.10;;;;;;;;;;5069334;28;20514;-71
2021/06/21 03:46:03;;;;;;;0.80;0.80;;;;;;;;;;5069466;28;20056;-71
2021/06/21 03:48:30;;;;;;;1.13;0.68;;;;;;;;;;5069633;28;20062;-71
2021/06/21 03:50:57;;;;;;;0.70;0.70;;;;;;;;;;5068873;28;20067;-71
2021/06/21 03:53:25;;;;;;;2.70;0.75;;;;;;;;;;5069572;28;20044;-71
2021/06/21 03:55:51;;;;;;;2.22;0.73;;;;;;;;;;5049307;28;20057;-71
2021/06/21 03:58:17;;;;;;;1.23;1.15;;;;;;;;;;5049986;28;20135;-71
2021/06/21 04:00:44;;;;;;;1.67;0.70;;;;;;;;;;5048942;28;20432;-71
2021/06/21 04:03:10;;;;;;;1.05;0.60;;;;;;;;;;5048716;28;20504;-71
2021/06/21 04:05:39;;;;;;;1.42;1.27;;;;;;;;;;5049126;28;20037;-71
2021/06/21 04:08:05;;;;;;;1.58;0.82;;;;;;;;;;5048991;28;20045;-71
2021/06/21 04:10:32;;;;;;;0.90;0.90;;;;;;;;;;5049768;28;20067;-71
2021/06/21 04:12:58;;;;;;;0.70;0.70;;;;;;;;;;5049111;28;20122;-71
2021/06/21 04:15:29;;;;;;;0.52;0.52;;;;;;;;;;5049002;28;20055;-71
2021/06/21 04:17:56;;;;;;;0.82;0.82;;;;;;;;;;5048969;28;20090;-71
2021/06/21 04:20:22;;;;;;;1.27;0.90;;;;;;;;;;5048843;28;20048;-71
2021/06/21 04:22:48;;;;;;;1.65;0.90;;;;;;;;;;5048569;28;20052;-71
2021/06/21 04:25:15;;;;;;;0.82;0.82;;;;;;;;;;5048457;28;20312;-71
2021/06/21 04:27:41;;;;;;;0.63;0.60;;;;;;;;;;5049438;28;20068;-71
2021/06/21 04:30:09;;;;;;;0.73;0.68;;;;;;;;;;5048200;28;20118;-71
2021/06/21 04:32:35;;;;;;;1.25;1.02;;;;;;;;;;5048205;28;20056;-71
2021/06/21 04:35:02;;;;;;;1.10;1.00;;;;;;;;;;5030091;28;20175;-71
2021/06/21 04:37:28;;;;;;;0.55;0.55;;;;;;;;;;5049216;28;20049;-71
2021/06/21 04:39:54;;;;;;;1.50;0.77;;;;;;;;;;5048007;28;20460;-71
2021/06/21 04:42:20;;;;;;;2.40;0.88;;;;;;;;;;5049008;28;20056;-71
2021/06/21 04:44:47;;;;;;;1.08;0.93;;;;;;;;;;5048032;28;20041;-71
2021/06/21 04:47:13;;;;;;;2.72;0.60;;;;;;;;;;5048753;28;20269;-71
2021/06/21 04:49:39;;;;;;;1.52;1.00;;;;;;;;;;5048866;28;20053;-71
2021/06/21 04:52:08;;;;;;;1.55;1.17;;;;;;;;;;5047992;28;20470;-71
2021/06/21 04:54:34;;;;;;;0.70;0.70;;;;;;;;;;5057904;28;20054;-71
2021/06/21 04:57:01;;;;;;;0.80;0.80;;;;;;;;;;5068461;28;20056;-71
2021/06/21 04:59:27;;;;;;;1.90;0.77;;;;;;;;;;5068690;28;20522;-71
2021/06/21 05:01:53;;;;;;;0.90;0.80;;;;;;;;;;5067283;28;20052;-71
2021/06/21 05:04:19;;;;;;;1.13;0.98;;;;;;;;;;5068164;28;20041;-71
2021/06/21 05:06:45;;;;;;;1.35;0.77;;;;;;;;;;5068159;28;20088;-71
2021/06/21 05:09:11;;;;;;;0.65;0.65;;;;;;;;;;5068025;28;20428;-71
2021/06/21 05:11:37;;;;;;;10.45;1.38;;;;;;;;;;5068338;28;20121;-71
2021/06/21 05:14:04;;;;;;;2.03;0.70;;;;;;;;;;5067498;28;20065;-71
2021/06/21 05:16:30;;;;;;;0.70;0.70;;;;;;;;;;5068383;28;20041;-71
2021/06/21 05:18:56;;;;;;;0.73;0.73;;;;;;;;;;5067859;28;20052;-71
2021/06/21 05:21:22;;;;;;;3.08;0.98;;;;;;;;;;5068253;28;20050;-71
2021/06/21 05:23:48;;;;;;;0.90;0.82;;;;;;;;;;5067320;28;20242;-71
2021/06/21 05:26:15;;;;;;;0.80;0.73;;;;;;;;;;5068036;28;20557;-71
2021/06/21 05:28:41;;;;;;;0.90;0.82;;;;;;;;;;5068200;28;20048;-71
2021/06/21 05:31:07;;;;;;;1.55;0.90;;;;;;;;;;5065907;28;20087;-71
2021/06/21 05:33:33;;;;;;;1.02;0.82;;;;;;;;;;5068090;28;20471;-71
2021/06/21 05:35:59;;;;;;;0.52;0.52;;;;;;;;;;5067038;28;20410;-71
2021/06/21 05:38:25;;;;;;;2.00;0.68;;;;;;;;;;5068146;28;20040;-71
2021/06/21 05:40:51;;;;;;;0.90;0.82;;;;;;;;;;5067375;28;20080;-71
2021/06/21 05:43:17;;;;;;;3.65;1.10;;;;;;;;;;5067320;28;20680;-71
2021/06/21 05:45:44;;;;;;;0.90;0.90;;;;;;;;;;5067863;28;20056;-71
2021/06/21 05:48:10;;;;;;;1.23;0.70;;;;;;;;;;5067381;28;20056;-71
2021/06/21 05:50:38;;;;;;;1.88;0.80;;;;;;;;;;5068682;28;20135;-71
2021/06/21 05:53:04;;;;;;;1.30;0.60;;;;;;;;;;5085575;28;20279;-71
2021/06/21 05:55:31;;;;;;;1.70;1.00;;;;;;;;;;5062455;28;20504;-71
2021/06/21 05:57:57;;;;;;;1.40;1.30;;;;;;;;;;5063116;28;20044;-71
2021/06/21 06:00:24;;;;;;;2.33;1.63;;;;;;;;;;5065527;28;20053;-71
2021/06/21 06:02:50;;;;;;;2.88;1.30;;;;;;;;;;5061864;28;20048;-71
2021/06/21 06:05:17;;;;;;;9.07;2.25;;;;;;;;;;5058514;28;20041;-71
2021/06/21 06:07:43;;;;;;;1.15;0.85;;;;;;;;;;5066373;28;20071;-71
2021/06/21 06:10:10;;;;;;;1.88;1.02;;;;;;;;;;5064869;28;20996;-71
2021/06/21 06:12:36;;;;;;;2.95;1.10;;;;;;;;;;5068873;28;20051;-71
2021/06/21 06:15:03;;;;;;;3.78;1.58;;;;;;;;;;5070444;28;20044;-71
2021/06/21 06:17:29;;;;;;;1.10;1.00;;;;;;;;;;5071727;28;20048;-70
2021/06/21 06:19:55;;;;;;;3.08;1.75;;;;;;;;;;5069092;28;20060;-70
2021/06/21 06:22:21;;;;;;;4.03;1.70;;;;;;;;;;5067889;28;20057;-70
2021/06/21 06:24:47;;;;;;;4.18;1.83;;;;;;;;;;5071217;28;20040;-70
2021/06/21 06:27:14;;;;;;;5.78;3.65;;;;;;;;;;5059906;28;20059;-71
2021/06/21 06:29:40;;;;;;;9.07;4.30;;;;;;;;;;5059400;28;20044;-70
2021/06/21 06:32:06;;;;;;;6.15;2.92;;;;;;;;;;5061567;28;20447;-71
2021/06/21 06:34:33;;;;;;;3.45;3.15;;;;;;;;;;5071005;28;20098;-70
2021/06/21 06:36:59;;;;;;;4.10;2.40;;;;;;;;;;5077837;28;20424;-69
2021/06/21 06:39:25;;;;;;;7.57;3.05;;;;;;;;;;5074890;28;20688;-70
2021/06/21 06:41:52;;;;;;;5.38;2.92;;;;;;;;;;5071666;28;20051;-69
2021/06/21 06:44:18;;;;;;;5.68;2.20;;;;;;;;;;5066785;28;20113;-70
2021/06/21 06:46:44;;;;;;;5.53;2.50;;;;;;;;;;5067915;28;20095;-70
2021/06/21 06:49:11;;;;;;;3.58;2.00;;;;;;;;;;5072740;28;20052;-70
2021/06/21 06:51:51;;;;;;;2.63;2.08;;;;;;;;;;5072791;28;20051;-72
2021/06/21 06:54:23;;;;;;;6.55;1.55;;;;;;;;;;5066546;28;20082;-71
2021/06/21 06:57:04;;;;;;;5.15;2.15;;;;;;;;;;5065308;28;20040;-71
2021/06/21 06:59:32;;;;;;;3.70;1.35;;;;;;;;;;5067031;28;20055;-71
2021/06/21 07:01:59;;;;;;;6.57;2.15;;;;;;;;;;5066076;28;20051;-72
2021/06/21 07:04:25;;;;;;;8.82;1.83;;;;;;;;;;5065126;28;20060;-72
2021/06/21 07:06:52;;;;;;;3.90;2.13;;;;;;;;;;5046303;28;20070;-72
2021/06/21 07:09:18;;;;;;;7.90;1.77;;;;;;;;;;5067839;28;20147;-71
2021/06/21 07:11:47;;;;;;;3.25;2.20;;;;;;;;;;5068375;28;20510;-72
2021/06/21 07:14:13;;;;;;;3.25;2.10;;;;;;;;;;5068317;28;20538;-71
2021/06/21 07:16:40;;;;;;;4.88;2.22;;;;;;;;;;5063632;28;20131;-71
2021/06/21 07:19:06;;;;;;;4.53;2.03;;;;;;;;;;5066691;28;20609;-72
2021/06/21 07:21:32;;;;;;;3.53;1.95;;;;;;;;;;5067651;28;20048;-71
2021/06/21 07:23:59;;;;;;;5.03;2.20;;;;;;;;;;5064566;28;20139;-71
2021/06/21 07:26:25;;;;;;;1.70;1.60;;;;;;;;;;5062171;28;20127;-70
2021/06/21 07:28:51;;;;;;;4.15;2.25;;;;;;;;;;5062612;28;20045;-71
2021/06/21 07:31:18;;;;;;;2.95;2.53;;;;;;;;;;5064307;28;20079;-72
2021/06/21 07:33:44;;;;;;;4.22;1.98;;;;;;;;;;5065767;28;20128;-72
2021/06/21 07:36:10;;;;;;;4.65;2.08;;;;;;;;;;5061987;28;20824;-72
2021/06/21 07:38:36;;;;;;;3.72;1.65;;;;;;;;;;5063775;28;20118;-72
2021/06/21 07:41:03;;;;;;;3.53;1.75;;;;;;;;;;5063434;28;20450;-72
2021/06/21 07:43:29;;;;;;;3.33;1.55;;;;;;;;;;5064493;28;20052;-72
2021/06/21 07:45:55;;;;;;;3.92;1.42;;;;;;;;;;5062660;28;20055;-72
2021/06/21 07:48:21;;;;;;;3.10;1.98;;;;;;;;;;5064633;28;20066;-72
2021/06/21 07:50:48;;;;;;;1.92;1.42;;;;;;;;;;5064473;28;20055;-72
2021/06/21 07:53:14;;;;;;;3.22;1.67;;;;;;;;;;5059763;28;20151;-71
2021/06/21 07:55:42;;;;;;;4.45;1.95;;;;;;;;;;5062323;28;20838;-71
2021/06/21 07:58:08;;;;;;;2.17;1.73;;;;;;;;;;5050287;28;20160;-71
2021/06/21 08:00:38;;;;;;;5.70;1.92;;;;;;;;;;5063081;28;20525;-72
2021/06/21 08:03:05;;;;;;;4.88;2.13;;;;;;;;;;5064053;28;20474;-72
2021/06/21 08:05:32;;;;;;;2.95;2.28;;;;;;;;;;5062140;28;20075;-72
2021/06/21 08:07:58;;;;;;;2.88;1.13;;;;;;;;;;5062687;28;20037;-71
2021/06/21 08:10:24;;;;;;;2.80;1.95;;;;;;;;;;5064337;28;20056;-71
2021/06/21 08:12:50;;;;;;;2.20;1.52;;;;;;;;;;5063854;28;20041;-71
2021/06/21 08:15:16;;;;;;;4.63;1.65;;;;;;;;;;5063748;28;21660;-71
2021/06/21 08:17:42;;;;;;;4.82;1.65;;;;;;;;;;5063092;28;20545;-71
2021/06/21 08:20:10;;;;;;;1.80;1.38;;;;;;;;;;5063737;28;20105;-71
2021/06/21 08:22:36;;;;;;;1.38;1.27;;;;;;;;;;5046203;28;20049;-71
2021/06/21 08:25:02;;;;;;;1.40;1.30;;;;;;;;;;5063976;28;20060;-70
2021/06/21 08:27:29;;;;;;;4.55;1.42;;;;;;;;;;5062879;28;20090;-71
2021/06/21 08:29:56;;;;;;;2.13;1.80;;;;;;;;;;5063340;28;20139;-71
2021/06/21 08:32:22;;;;;;;2.88;2.05;;;;;;;;;;5061458;28;20383;-71
2021/06/21 08:34:48;;;;;;;4.43;1.88;;;;;;;;;;5062852;28;20137;-71
2021/06/21 08:37:14;;;;;;;10.25;2.47;;;;;;;;;;5061529;28;20458;-71
2021/06/21 08:39:40;;;;;;;2.53;1.40;;;;;;;;;;5062989;28;20427;-71
2021/06/21 08:42:07;;;;;;;6.05;1.70;;;;;;;;;;5061998;28;20302;-68
2021/06/21 08:44:36;;;;;;;1.85;1.55;;;;;;;;;;5062402;28;20056;-72
2021/06/21 08:47:04;;;;;;;2.58;2.38;;;;;;;;;;5060168;28;20461;-69
2021/06/21 08:49:33;;;;;;;2.10;1.50;;;;;;;;;;5063365;28;20522;-70
2021/06/21 08:51:59;;;;;;;1.63;1.50;;;;;;;;;;5060644;28;20099;-72
2021/06/21 08:54:25;;;;;;;4.80;1.80;;;;;;;;;;5062911;28;20407;-71
2021/06/21 08:56:57;;;;;;;4.88;2.20;;;;;;;;;;5061713;28;20052;-71
2021/06/21 08:59:23;;;;;;;2.45;2.08;;;;;;;;;;5063797;28;20055;-71
2021/06/21 09:01:49;;;;;;;3.60;1.65;;;;;;;;;;5062576;28;20052;-71
2021/06/21 09:04:16;;;;;;;4.95;1.88;;;;;;;;;;5063481;28;20498;-71
2021/06/21 09:06:45;;;;;;;3.40;1.80;;;;;;;;;;5058178;28;20044;-71
2021/06/21 09:09:12;;;;;;;7.47;2.60;;;;;;;;;;5061858;28;20095;-71
2021/06/21 09:11:50;;;;;;;3.17;1.50;;;;;;;;;;5063348;28;20053;-71
2021/06/21 09:14:30;;;;;;;2.13;1.55;;;;;;;;;;5062017;28;20444;-71
2021/06/21 09:16:58;;;;;;;2.53;2.33;;;;;;;;;;5058942;28;20511;-71
2021/06/21 09:19:24;;;;;;;1.77;1.48;;;;;;;;;;5063837;28;20041;-71
2021/06/21 09:21:51;;;;;;;4.05;1.85;;;;;;;;;;5062342;28;20100;-71
2021/06/21 09:24:22;;;;;;;3.90;2.08;;;;;;;;;;5064568;28;20094;-71
2021/06/21 09:26:49;;;;;;;6.00;2.22;;;;;;;;;;5060567;28;20048;-71
2021/06/21 09:29:16;;;;;;;3.65;1.90;;;;;;;;;;5061927;28;20055;-71
2021/06/21 09:31:49;;;;;;;5.78;2.50;;;;;;;;;;5061822;28;20058;-70
2021/06/21 09:34:16;;;;;;;3.13;1.70;;;;;;;;;;5060480;28;20068;-71
2021/06/21 09:36:42;;;;;;;1.88;1.23;;;;;;;;;;5059198;28;20217;-71
2021/06/21 09:39:22;;;;;;;4.43;2.00;;;;;;;;;;5061180;28;20052;-68
2021/06/21 09:42:07;;;;;;;1.60;1.20;;;;;;;;;;5061102;28;20040;-71
2021/06/21 09:44:37;;;;;;;1.23;1.13;;;;;;;;;;5059895;28;20093;-72
2021/06/21 09:47:11;;;;;;;2.00;1.48;;;;;;;;;;5057222;28;20067;-71
2021/06/21 09:49:37;;;;;;;2.30;1.40;;;;;;;;;;5061982;28;20055;-71
2021/06/21 09:52:03;;;;;;;1.83;1.65;;;;;;;;;;5061545;28;20044;-69
2021/06/21 09:54:33;;;;;;;5.55;1.58;;;;;;;;;;5060917;28;20044;-70
2021/06/21 09:57:11;;;;;;;6.55;1.88;;;;;;;;;;5057838;28;20163;-70
2021/06/21 09:59:46;;;;;;;3.45;1.40;;;;;;;;;;5061297;28;20079;-71
2021/06/21 10:02:17;;;;;;;3.90;2.05;;;;;;;;;;5060094;28;20052;-71
2021/06/21 10:04:44;;;;;;;2.80;1.92;;;;;;;;;;5058121;28;20078;-69
2021/06/21 10:07:30;;;;;;;1.65;1.55;;;;;;;;;;5065079;28;20067;-70
2021/06/21 10:09:57;;;;;;;2.00;1.85;;;;;;;;;;5064684;28;20037;-70
2021/06/21 10:12:24;;;;;;;0.80;0.80;;;;;;;;;;5070131;28;20048;-70
2021/06/21 10:14:50;;;;;;;1.98;1.35;;;;;;;;;;5065904;28;20064;-70
2021/06/21 10:17:16;;;;;;;3.10;1.35;;;;;;;;;;5087971;28;20075;-70
2021/06/21 10:19:43;;;;;;;2.15;1.10;;;;;;;;;;5085211;28;20052;-70
2021/06/21 10:22:09;;;;;;;2.50;1.58;;;;;;;;;;5066551;28;20139;-70
2021/06/21 10:24:35;;;;;;;1.00;0.90;;;;;;;;;;5083177;28;20105;-70
2021/06/21 10:27:01;;;;;;;3.50;1.33;;;;;;;;;;5087633;28;20063;-70
2021/06/21 10:29:28;;;;;;;2.00;1.67;;;;;;;;;;5074091;28;21388;-71
2021/06/21 10:31:54;;;;;;;2.88;1.88;;;;;;;;;;5058555;28;20044;-70
2021/06/21 10:34:21;;;;;;;2.50;1.08;;;;;;;;;;5060886;28;20043;-71
2021/06/21 10:36:52;;;;;;;1.80;1.40;;;;;;;;;;5060935;28;20080;-72
2021/06/21 10:39:22;;;;;;;1.67;1.58;;;;;;;;;;5062349;28;20070;-72
2021/06/21 10:42:07;;;;;;;2.28;1.42;;;;;;;;;;5062295;28;20546;-72
2021/06/21 10:44:50;;;;;;;4.43;1.92;;;;;;;;;;5061753;28;20135;-72
2021/06/21 10:47:35;;;;;;;1.33;1.33;;;;;;;;;;5043205;28;20384;-72
2021/06/21 10:50:01;;;;;;;2.17;1.85;;;;;;;;;;5061565;28;20518;-72
2021/06/21 10:52:35;;;;;;;1.55;1.45;;;;;;;;;;5062645;28;20519;-72
2021/06/21 10:55:19;;;;;;;3.42;1.38;;;;;;;;;;5061117;28;20097;-72
2021/06/21 10:57:45;;;;;;;3.45;1.27;;;;;;;;;;5061362;28;20052;-72
2021/06/21 11:00:13;;;;;;;1.30;1.20;;;;;;;;;;5065362;28;20072;-72
2021/06/21 11:02:39;;;;;;;2.92;1.50;;;;;;;;;;5065266;28;20040;-72
2021/06/21 11:05:05;;;;;;;1.55;1.45;;;;;;;;;;5064484;28;20052;-72
2021/06/21 11:07:32;;;;;;;2.80;1.05;;;;;;;;;;5060911;28;20053;-72
2021/06/21 11:09:59;;;;;;;3.80;1.95;;;;;;;;;;5064815;28;20052;-72
2021/06/21 11:12:31;;;;;;;3.97;1.10;;;;;;;;;;5065388;28;20048;-72
2021/06/21 11:15:09;;;;;;;1.52;1.02;;;;;;;;;;5063559;28;20049;-72
2021/06/21 11:17:52;;;;;;;3.13;1.65;;;;;;;;;;5062763;28;20063;-71
2021/06/21 11:20:25;;;;;;;4.00;2.10;;;;;;;;;;5064202;28;20060;-71
2021/06/21 11:22:51;;;;;;;2.03;1.52;;;;;;;;;;5056999;28;20059;-71
2021/06/21 11:25:21;;;;;;;1.98;1.50;;;;;;;;;;5064079;28;20068;-70
2021/06/21 11:27:47;;;;;;;2.22;1.23;;;;;;;;;;5059207;28;20052;-71
2021/06/21 11:30:30;;;;;;;3.95;2.00;;;;;;;;;;5058444;28;20052;-71
2021/06/21 11:33:01;;;;;;;7.13;1.52;;;;;;;;;;5053801;28;20048;-72
2021/06/21 11:36:00;;;;;;;4.32;1.92;;;;;;;;;;5058833;28;20143;-72
2021/06/21 11:38:38;;;;;;;5.18;1.63;;;;;;;;;;5019041;28;20495;-71
2021/06/21 11:41:19;;;;;;;3.03;1.90;;;;;;;;;;5057490;28;20147;-73
2021/06/21 11:43:47;;;;;;;2.60;1.30;;;;;;;;;;5058989;28;21248;-71
2021/06/21 11:46:33;;;;;;;2.08;1.05;;;;;;;;;;5056554;28;20040;-72
2021/06/21 11:49:07;;;;;;;1.02;0.98;;;;;;;;;;5057400;28;20072;-70
2021/06/21 11:51:32;;;;;;;;;;;;;;;;;;5058162;28;20041;-71
2021/06/21 11:54:00;;;;;;;2.53;1.58;;;;;;;;;;5058662;28;19990;-70
2021/06/21 11:56:26;;;;;;;2.75;1.52;;;;;;;;;;5057086;28;20076;-71
2021/06/21 11:58:53;;;;;;;2.65;1.20;;;;;;;;;;5055251;28;20110;-71
2021/06/21 12:01:23;;;;;;;1.55;1.20;;;;;;;;;;5052524;28;20041;-70
2021/06/21 12:03:54;;;;;;;1.50;0.95;;;;;;;;;;5053268;28;20678;-71
2021/06/21 12:06:20;;;;;;;1.42;1.33;;;;;;;;;;5053899;28;20059;-70
2021/06/21 12:08:46;;;;;;;1.60;1.00;;;;;;;;;;5058272;28;20281;-71
2021/06/21 12:11:22;;;;;;;2.92;1.10;;;;;;;;;;5051038;28;20060;-71
2021/06/21 12:13:58;;;;;;;1.90;0.80;;;;;;;;;;5060147;28;20446;-70
2021/06/21 12:16:26;;;;;;;1.27;1.13;;;;;;;;;;5057867;28;20041;-71
2021/06/21 12:18:56;;;;;;;2.47;0.95;;;;;;;;;;5057916;28;20080;-70
2021/06/21 12:21:30;;;;;;;2.95;0.90;;;;;;;;;;5058104;28;20052;-70
2021/06/21 12:23:56;;;;;;;0.93;0.82;;;;;;;;;;5058294;28;20779;-69
2021/06/21 12:26:22;;;;;;;3.42;1.80;;;;;;;;;;5054028;28;20135;-70
2021/06/21 12:28:48;;;;;;;3.80;1.67;;;;;;;;;;5057778;28;20769;-72
2021/06/21 12:31:16;;;;;;;2.05;1.17;;;;;;;;;;5056096;28;20049;-70
2021/06/21 12:33:43;;;;;;;2.22;1.48;;;;;;;;;;5058262;28;20157;-70
2021/06/21 12:36:09;;;;;;;5.50;1.50;;;;;;;;;;5057001;28;20048;-70
2021/06/21 12:38:37;;;;;;;5.65;1.67;;;;;;;;;;5057050;28;20088;-70
2021/06/21 12:41:18;;;;;;;3.05;1.80;;;;;;;;;;5057642;28;20056;-70
2021/06/21 12:43:59;;;;;;;8.32;2.05;;;;;;;;;;5058747;28;20189;-70
2021/06/21 12:46:26;;;;;;;4.15;1.65;;;;;;;;;;5054104;28;20171;-69
2021/06/21 12:48:53;;;;;;;4.15;1.20;;;;;;;;;;5057204;28;20612;-70
2021/06/21 12:51:20;;;;;;;1.95;1.55;;;;;;;;;;5057518;28;20113;-70
2021/06/21 12:53:47;;;;;;;3.05;1.35;;;;;;;;;;5058064;28;20064;-70
2021/06/21 12:56:28;;;;;;;3.47;2.00;;;;;;;;;;5053481;28;20071;-70
2021/06/21 12:58:55;;;;;;;7.18;1.55;;;;;;;;;;5053908;28;20534;-71
2021/06/21 13:01:32;;;;;;;3.45;1.30;;;;;;;;;;5055400;28;20489;-75
2021/06/21 13:04:00;;;;;;;4.07;1.48;;;;;;;;;;5055335;28;20063;-70
2021/06/21 13:06:33;;;;;;;2.42;1.95;;;;;;;;;;5054237;28;20060;-70
2021/06/21 13:09:00;;;;;;;6.22;1.33;;;;;;;;;;5057443;28;20055;-70
2021/06/21 13:11:26;;;;;;;1.70;1.40;;;;;;;;;;5058852;28;20572;-70
2021/06/21 13:13:53;;;;;;;5.40;1.73;;;;;;;;;;5057851;28;20058;-70
2021/06/21 13:16:19;;;;;;;1.77;1.67;;;;;;;;;;5055087;28;20070;-71
2021/06/21 13:18:47;;;;;;;4.72;2.17;;;;;;;;;;5057413;28;20065;-69
2021/06/21 13:21:13;;;;;;;1.35;1.10;;;;;;;;;;5056469;28;20083;-70
2021/06/21 13:23:50;;;;;;;3.35;1.77;;;;;;;;;;5056760;28;21256;-70
2021/06/21 13:26:16;;;;;;;3.22;1.25;;;;;;;;;;5038935;28;20662;-71
2021/06/21 13:28:43;;;;;;;4.55;1.13;;;;;;;;;;5054892;28;20052;-71
2021/06/21 13:31:11;;;;;;;1.02;0.93;;;;;;;;;;5053743;28;20087;-70
2021/06/21 13:33:45;;;;;;;5.40;1.80;;;;;;;;;;5057046;28;20535;-70
2021/06/21 13:36:11;;;;;;;;;;;;;;;;;;5055452;28;20064;-71
2021/06/21 13:38:37;;;;;;;2.15;1.20;;;;;;;;;;5055322;28;19920;-71
2021/06/21 13:41:05;;;;;;;3.67;1.40;;;;;;;;;;5055743;28;20042;-70
2021/06/21 13:43:33;;;;;;;2.38;1.48;;;;;;;;;;5057478;28;20048;-70
2021/06/21 13:46:12;;;;;;;5.70;2.38;;;;;;;;;;5057911;28;20064;-70
2021/06/21 13:48:39;;;;;;;2.47;1.50;;;;;;;;;;5056841;28;20563;-70
2021/06/21 13:51:12;;;;;;;4.03;1.35;;;;;;;;;;5056108;28;20091;-70
2021/06/21 13:53:38;;;;;;;;;;;;;;;;;;5056319;28;20060;-70
2021/06/21 13:56:09;;;;;;;1.50;1.27;;;;;;;;;;5055845;28;19916;-70
2021/06/21 13:58:39;;;;;;;2.97;1.30;;;;;;;;;;5037418;28;20465;-68
2021/06/21 14:01:10;;;;;;;3.20;1.20;;;;;;;;;;5053566;28;20075;-70
2021/06/21 14:03:36;;;;;;;3.90;1.63;;;;;;;;;;5056565;28;20449;-70
2021/06/21 14:06:04;;;;;;;1.98;1.88;;;;;;;;;;5055538;28;20056;-70
2021/06/21 14:08:30;;;;;;;1.40;1.13;;;;;;;;;;5055854;28;20098;-70
2021/06/21 14:10:57;;;;;;;2.95;1.40;;;;;;;;;;5056144;28;20071;-70
2021/06/21 14:13:25;;;;;;;2.47;1.30;;;;;;;;;;5052923;28;20395;-70
2021/06/21 14:15:51;;;;;;;3.00;1.73;;;;;;;;;;5057529;28;20210;-70
2021/06/21 14:18:18;;;;;;;2.58;1.58;;;;;;;;;;5055129;28;20049;-69
2021/06/21 14:20:45;;;;;;;6.95;1.65;;;;;;;;;;5057323;28;20075;-70
2021/06/21 14:23:12;;;;;;;2.17;1.98;;;;;;;;;;5056373;28;20782;-70
2021/06/21 14:25:42;;;;;;;5.93;1.58;;;;;;;;;;5055493;28;20532;-71
2021/06/21 14:28:08;;;;;;;1.40;1.17;;;;;;;;;;5054603;28;20060;-69
2021/06/21 14:30:35;;;;;;;3.15;1.58;;;;;;;;;;5057414;28;20101;-70
2021/06/21 14:33:01;;;;;;;5.30;1.70;;;;;;;;;;5057582;28;20057;-70
2021/06/21 14:35:27;;;;;;;3.70;1.35;;;;;;;;;;5061709;28;20114;-69
2021/06/21 14:37:53;;;;;;;3.00;1.75;;;;;;;;;;5055915;28;20044;-70
2021/06/21 14:40:20;;;;;;;14.65;1.88;;;;;;;;;;5058353;28;20072;-70
2021/06/21 14:42:46;;;;;;;2.22;1.52;;;;;;;;;;5060187;28;20099;-69
2021/06/21 14:45:12;;;;;;;1.95;1.70;;;;;;;;;;5061814;28;20082;-69
2021/06/21 14:47:38;;;;;;;1.98;1.38;;;;;;;;;;5057510;28;20406;-69
2021/06/21 14:52:36;;;;;;;2.08;1.75;;;;;;;;;;5050819;28;20140;-69